Time;durP1;ratioP1;P1;durP2;ratioP2;P2;SDS_P1;SDS_P2;PMS_P1;PMS_P2;Temp;Humidity;BMP_temperature;BMP_pressure;BME280_temperature;BME280_humidity;BME280_pressure;Samples;Min_cycle;Max_cycle;Signal;HPM_P1;HPM_P2
2023/05/15 00:01:44;;;;;;;31.50;28.60;;;;;;;12.89;100.00;101416.69;5090727;28;20432;-42
2023/05/15 00:04:12;;;;;;;34.93;31.50;;;;;;;12.86;100.00;101418.91;5092006;28;20437;-43
2023/05/15 00:06:39;;;;;;;34.70;31.20;;;;;;;12.87;100.00;101415.22;5091626;28;20472;-41
2023/05/15 00:09:08;;;;;;;37.57;33.20;;;;;;;12.85;100.00;101414.56;5090769;28;20837;-47
2023/05/15 00:11:37;;;;;;;38.80;35.10;;;;;;;12.82;100.00;101407.75;5091014;28;20477;-45
2023/05/15 00:14:05;;;;;;;38.27;34.40;;;;;;;12.80;100.00;101408.97;5091529;28;20524;-44
2023/05/15 00:16:32;;;;;;;40.77;36.53;;;;;;;12.77;100.00;101400.31;5088839;28;20506;-44
2023/05/15 00:19:00;;;;;;;39.07;35.07;;;;;;;12.71;100.00;101405.63;5082815;28;21153;-42
2023/05/15 00:21:28;;;;;;;38.30;34.50;;;;;;;12.69;100.00;101384.41;5091172;28;20438;-46
2023/05/15 00:23:57;;;;;;;38.60;34.80;;;;;;;12.70;100.00;101391.41;5090478;28;20442;-45
2023/05/15 00:26:25;;;;;;;41.60;37.40;;;;;;;12.67;100.00;101394.47;5091125;28;20462;-42
2023/05/15 00:28:54;;;;;;;41.97;37.77;;;;;;;12.67;100.00;101394.47;5090525;28;21072;-42
2023/05/15 00:31:21;;;;;;;39.00;35.03;;;;;;;12.65;100.00;101396.53;5091072;28;20929;-43
2023/05/15 00:33:49;;;;;;;38.10;34.23;;;;;;;12.63;100.00;101393.19;5091317;28;20453;-45
2023/05/15 00:36:20;;;;;;;43.50;39.40;;;;;;;12.60;100.00;101380.22;5090076;28;20457;-46
2023/05/15 00:38:48;;;;;;;38.13;34.27;;;;;;;12.59;100.00;101383.94;5091166;28;20425;-44
2023/05/15 00:41:16;;;;;;;37.97;34.57;;;;;;;12.54;100.00;101394.41;5090602;28;20922;-44
2023/05/15 00:43:45;;;;;;;39.47;35.47;;;;;;;12.51;100.00;101381.41;5090359;28;21061;-42
2023/05/15 00:46:15;;;;;;;37.70;34.17;;;;;;;12.49;100.00;101375.41;5090201;28;20471;-47
2023/05/15 00:48:44;;;;;;;40.80;36.50;;;;;;;12.47;100.00;101380.13;5090184;28;20430;-42
2023/05/15 00:51:11;;;;;;;44.40;40.10;;;;;;;12.49;100.00;101366.53;5090643;28;21066;-44
2023/05/15 00:53:40;;;;;;;38.67;34.97;;;;;;;12.46;100.00;101370.44;5089880;28;20457;-43
2023/05/15 00:56:09;;;;;;;41.83;37.57;;;;;;;12.40;100.00;101368.53;5089583;28;20453;-42
2023/05/15 00:58:37;;;;;;;44.10;39.50;;;;;;;12.37;100.00;101371.59;5091725;28;20463;-45
2023/05/15 01:01:05;;;;;;;38.90;35.00;;;;;;;12.31;100.00;101367.00;5090986;28;20453;-42
2023/05/15 01:03:36;;;;;;;41.53;37.17;;;;;;;12.29;100.00;101355.69;5089707;28;20450;-45
2023/05/15 01:06:05;;;;;;;41.83;37.53;;;;;;;12.23;100.00;101353.78;5090003;28;20473;-43
2023/05/15 01:08:39;;;;;;;42.77;38.57;;;;;;;12.17;100.00;101351.88;5090550;28;20668;-42
2023/05/15 01:11:08;;;;;;;47.73;42.73;;;;;;;12.11;100.00;101355.31;5090083;28;20491;-45
2023/05/15 01:13:36;;;;;;;42.27;38.07;;;;;;;12.06;100.00;101353.22;5089813;28;20825;-47
2023/05/15 01:16:05;;;;;;;43.23;38.80;;;;;;;12.00;100.00;101348.66;5090323;28;20461;-43
2023/05/15 01:18:32;;;;;;;46.70;42.20;;;;;;;11.98;100.00;101339.97;5090441;28;20426;-43
2023/05/15 01:21:27;;;;;;;47.37;42.47;;;;;;;11.93;100.00;101349.59;5090210;28;20465;-42
2023/05/15 01:24:11;;;;;;;43.20;38.47;;;;;;;11.90;100.00;101344.63;5089531;28;20965;-43
2023/05/15 01:27:02;;;;;;;45.57;40.70;;;;;;;11.84;100.00;101340.03;5089281;28;20454;-44
2023/05/15 01:29:36;;;;;;;44.73;39.80;;;;;;;11.86;100.00;101330.81;5089831;28;20441;-42
2023/05/15 01:32:09;;;;;;;43.23;38.77;;;;;;;11.85;100.00;101328.34;5089587;28;20473;-46
2023/05/15 01:34:45;;;;;;;47.40;42.40;;;;;;;11.87;100.00;101334.31;5089235;28;20448;-45
2023/05/15 01:37:16;;;;;;;49.87;44.73;;;;;;;11.82;100.00;101331.41;5090716;28;20421;-43
2023/05/15 01:39:49;;;;;;;47.37;41.70;;;;;;;11.84;100.00;101337.38;5090140;28;20437;-43
2023/05/15 01:42:19;;;;;;;45.47;40.93;;;;;;;11.82;100.00;101328.72;5089347;28;20968;-46
2023/05/15 01:44:53;;;;;;;46.20;41.40;;;;;;;11.79;100.00;101327.25;5090131;28;20456;-44
2023/05/15 01:47:27;;;;;;;45.37;40.73;;;;;;;11.77;100.00;101334.63;5089256;28;20440;-42
2023/05/15 01:49:56;;;;;;;45.13;40.43;;;;;;;11.75;100.00;101331.31;5090334;28;20440;-43
2023/05/15 01:52:28;;;;;;;50.50;45.00;;;;;;;11.72;100.00;101333.53;5088651;28;20473;-41
2023/05/15 01:54:58;;;;;;;52.27;46.70;;;;;;;11.68;100.00;101323.19;5088930;28;21047;-44
2023/05/15 01:57:28;;;;;;;47.87;42.93;;;;;;;11.65;100.00;101328.91;5089033;28;20434;-42
2023/05/15 01:59:58;;;;;;;46.00;41.40;;;;;;;11.60;100.00;101326.00;5088716;28;20442;-43
2023/05/15 02:02:27;;;;;;;45.00;40.17;;;;;;;11.58;100.00;101329.88;5088825;28;20807;-43
2023/05/15 02:04:56;;;;;;;52.57;45.70;;;;;;;11.57;100.00;101323.69;5088743;28;20526;-46
2023/05/15 02:07:24;;;;;;;48.97;43.80;;;;;;;11.57;100.00;101330.88;5089382;28;20429;-42
2023/05/15 02:09:53;;;;;;;51.23;45.60;;;;;;;11.56;100.00;101330.03;5088832;28;20433;-42
2023/05/15 02:12:22;;;;;;;55.53;47.50;;;;;;;11.52;100.00;101327.97;5088527;28;20512;-43
2023/05/15 02:14:52;;;;;;;51.07;45.80;;;;;;;11.47;100.00;101333.00;5088466;28;20845;-43
2023/05/15 02:17:21;;;;;;;53.03;47.30;;;;;;;11.48;100.00;101338.19;5088886;28;20433;-44
2023/05/15 03:05:09;;;;;;;55.27;47.43;;;;;;;10.84;100.00;101317.66;5068084;28;20401;-44
2023/05/15 03:07:37;;;;;;;48.13;42.80;;;;;;;10.84;100.00;101323.00;5067794;28;20430;-41
2023/05/15 03:10:06;;;;;;;53.00;46.73;;;;;;;10.84;100.00;101317.66;5056667;28;20466;-49
2023/05/15 03:12:33;;;;;;;51.47;45.90;;;;;;;10.83;100.00;101318.66;5071636;28;20473;-45
2023/05/15 03:15:01;;;;;;;52.80;45.90;;;;;;;10.84;100.00;101317.66;5100932;22;20884;-42
2023/05/15 03:17:29;;;;;;;57.00;50.50;;;;;;;10.85;100.00;101324.63;5084338;28;20426;-41
2023/05/15 03:19:57;;;;;;;59.53;49.67;;;;;;;10.87;100.00;101318.09;5069572;28;20456;-43
2023/05/15 03:22:26;;;;;;;56.93;50.83;;;;;;;10.91;100.00;101316.72;5092158;28;20427;-43
2023/05/15 03:24:53;;;;;;;53.43;47.63;;;;;;;10.92;100.00;101309.53;5091929;28;20448;-44
2023/05/15 03:27:21;;;;;;;50.17;44.70;;;;;;;10.93;100.00;101312.00;5074911;28;20433;-42
2023/05/15 03:29:49;;;;;;;49.67;44.17;;;;;;;10.94;100.00;101312.84;5048866;28;20496;-40
2023/05/15 03:32:17;;;;;;;54.03;48.27;;;;;;;11.00;100.00;101306.78;5071462;28;20978;-43
2023/05/15 03:34:45;;;;;;;61.13;52.10;;;;;;;11.05;100.00;101307.88;5071587;28;20461;-43
2023/05/15 03:37:12;;;;;;;48.27;43.00;;;;;;;11.06;100.00;101304.19;5071842;28;20430;-43
2023/05/15 03:39:41;;;;;;;53.43;47.60;;;;;;;11.10;100.00;101302.00;5071815;28;20430;-42
2023/05/15 03:42:09;;;;;;;55.37;49.40;;;;;;;11.12;100.00;101305.28;5044771;28;20943;-41
2023/05/15 03:44:37;;;;;;;52.80;47.20;;;;;;;11.17;100.00;101304.75;5071699;28;20446;-45
2023/05/15 03:47:05;;;;;;;53.90;48.17;;;;;;;11.21;100.00;101301.50;5071630;28;20942;-45
2023/05/15 03:49:32;;;;;;;54.90;49.20;;;;;;;11.30;100.00;101308.38;5071012;28;20434;-40
2023/05/15 03:52:00;;;;;;;50.67;45.37;;;;;;;11.39;100.00;101301.91;5048062;28;20569;-41
2023/05/15 03:54:28;;;;;;;51.83;45.37;;;;;;;11.49;100.00;101296.28;5071689;28;20460;-46
2023/05/15 03:56:57;;;;;;;56.03;49.33;;;;;;;11.54;100.00;101293.88;5071365;28;20467;-45
2023/05/15 03:59:25;;;;;;;48.77;43.77;;;;;;;11.66;100.00;101293.19;5070244;28;20434;-41
2023/05/15 04:01:52;;;;;;;47.37;42.53;;;;;;;11.75;100.00;101287.72;5048582;28;21145;-40
2023/05/15 04:04:31;;;;;;;52.43;46.63;;;;;;;11.81;100.00;101287.81;5071014;28;20836;-40
2023/05/15 04:06:59;;;;;;;44.47;40.17;;;;;;;11.89;100.00;101279.66;5068933;28;20434;-44
2023/05/15 04:09:27;;;;;;;50.83;45.57;;;;;;;11.97;100.00;101284.03;5070904;28;20426;-47
2023/05/15 04:11:54;;;;;;;54.00;47.50;;;;;;;12.07;100.00;101276.50;5047195;28;20447;-43
2023/05/15 04:14:23;;;;;;;48.90;43.90;;;;;;;12.13;100.00;101276.56;5070397;28;20458;-43
2023/05/15 04:16:51;;;;;;;49.97;44.97;;;;;;;12.23;100.00;101272.72;5071307;28;20437;-44
2023/05/15 04:19:19;;;;;;;48.37;43.37;;;;;;;12.38;100.00;101274.28;5071020;28;20453;-42
2023/05/15 04:21:47;;;;;;;45.80;41.00;;;;;;;12.51;100.00;101268.22;5056833;28;20903;-42
2023/05/15 04:24:15;;;;;;;46.20;41.70;;;;;;;12.66;100.00;101271.59;5070825;28;20460;-42
2023/05/15 04:26:43;;;;;;;48.60;43.90;;;;;;;12.93;100.00;101281.38;5070109;28;20632;-42
2023/05/15 04:29:10;;;;;;;45.20;41.00;;;;;;;13.41;100.00;101274.19;5070516;28;20458;-41
2023/05/15 04:31:39;;;;;;;43.70;39.40;;;;;;;14.26;100.00;101263.56;5046427;28;21504;-42
2023/05/15 04:34:07;;;;;;;40.27;36.87;;;;;;;15.17;100.00;101274.28;5069842;28;20822;-44
2023/05/15 04:36:35;;;;;;;41.37;37.33;;;;;;;15.92;100.00;101266.19;5070643;28;20430;-41
2023/05/15 04:39:03;;;;;;;40.47;36.93;;;;;;;16.53;100.00;101249.28;5070705;28;20431;-42
2023/05/15 04:41:32;;;;;;;35.67;32.67;;;;;;;17.11;100.00;101245.09;5070088;28;20454;-48
2023/05/15 04:43:59;;;;;;;35.37;31.77;;;;;;;17.86;100.00;101247.41;5046959;28;20485;-41
2023/05/15 04:46:28;;;;;;;32.50;29.53;;;;;;;18.52;100.00;101236.28;5070520;28;20437;-42
2023/05/15 04:48:57;;;;;;;32.97;30.17;;;;;;;19.12;100.00;101237.53;5070334;28;20546;-43
2023/05/15 04:51:25;;;;;;;34.23;31.00;;;;;;;19.44;100.00;101237.94;5070369;28;20434;-43
2023/05/15 04:53:52;;;;;;;30.17;27.53;;;;;;;19.95;100.00;101228.75;5055865;28;20485;-43
2023/05/15 04:56:20;;;;;;;31.30;28.13;;;;;;;20.26;100.00;101232.81;5069975;28;20437;-44
2023/05/15 04:58:48;;;;;;;30.97;28.37;;;;;;;20.70;100.00;101226.38;5070614;28;20480;-44
2023/05/15 05:01:15;;;;;;;28.73;26.23;;;;;;;20.86;100.00;101224.69;5070138;28;20425;-46
2023/05/15 05:03:43;;;;;;;27.13;24.60;;;;;;;20.94;100.00;101226.94;5047674;28;20481;-44
2023/05/15 05:06:12;;;;;;;28.30;25.70;;;;;;;21.51;100.00;101222.72;5070414;28;20457;-44
2023/05/15 05:08:40;;;;;;;28.10;25.70;;;;;;;21.85;100.00;101230.63;5070258;28;20429;-46
2023/05/15 05:11:07;;;;;;;30.03;27.67;;;;;;;21.81;96.90;101230.31;5069300;28;20780;-44
2023/05/15 05:13:35;;;;;;;27.80;25.20;;;;;;;21.92;89.36;101225.81;5046651;28;21020;-46
2023/05/15 05:16:03;;;;;;;29.10;26.70;;;;;;;22.07;84.32;101233.28;5069901;28;20462;-45
2023/05/15 05:18:31;;;;;;;24.80;22.90;;;;;;;22.80;96.45;101222.31;5069852;28;20434;-48
2023/05/15 05:21:01;;;;;;;28.97;26.70;;;;;;;23.04;90.47;101219.94;5069836;28;20433;-44
2023/05/15 05:23:31;;;;;;;25.97;23.77;;;;;;;22.70;71.95;101216.03;5055093;28;20499;-43
2023/05/15 05:26:00;;;;;;;23.50;21.60;;;;;;;23.18;83.85;101206.66;5021579;28;20478;-41
2023/05/15 05:28:29;;;;;;;22.70;20.80;;;;;;;23.80;88.05;101209.22;5071051;28;20454;-44
2023/05/15 05:30:56;;;;;;;24.50;22.53;;;;;;;24.30;78.89;101208.34;5064856;28;20449;-46
2023/05/15 05:33:24;;;;;;;24.63;22.53;;;;;;;24.60;75.69;101203.63;5070495;28;20473;-41
2023/05/15 05:35:52;;;;;;;20.00;18.40;;;;;;;25.00;70.89;101215.50;5070783;28;20459;-43
2023/05/15 05:39:16;;;;;;;24.77;22.97;;;;;;;25.50;64.77;101222.59;5113983;27;20913;-42
2023/05/15 05:41:43;;;;;;;25.00;23.10;;;;;;;25.42;67.67;101218.50;5085997;28;20425;-41
2023/05/15 05:44:12;;;;;;;19.90;18.40;;;;;;;25.67;57.94;101215.63;5087564;28;20464;-43
2023/05/15 05:46:40;;;;;;;19.63;18.00;;;;;;;25.67;59.00;101215.63;5063396;28;20968;-46
2023/05/15 05:49:08;;;;;;;20.40;18.70;;;;;;;25.83;57.20;101213.59;5026812;28;20845;-43
2023/05/15 05:51:37;;;;;;;24.13;22.30;;;;;;;25.68;60.36;101203.59;5027008;28;20443;-41
2023/05/15 05:54:05;;;;;;;18.87;17.57;;;;;;;25.72;58.22;101215.56;5025968;28;20432;-41
2023/05/15 05:56:34;;;;;;;25.73;23.70;;;;;;;25.97;56.30;101216.47;5026879;28;20455;-40
2023/05/15 05:59:01;;;;;;;23.80;21.77;;;;;;;26.36;59.21;101209.81;5028042;28;20521;-42
2023/05/15 06:01:29;;;;;;;21.50;19.70;;;;;;;26.56;57.44;101210.66;5027192;28;20439;-45
2023/05/15 06:03:57;;;;;;;20.53;18.83;;;;;;;26.52;58.49;101202.25;5028124;28;20514;-40
2023/05/15 06:06:25;;;;;;;23.87;21.90;;;;;;;26.56;55.09;101203.28;5027252;28;20534;-43
2023/05/15 06:08:53;;;;;;;28.13;25.77;;;;;;;26.28;56.76;101204.16;5027887;28;20462;-41
2023/05/15 06:11:23;;;;;;;19.23;17.70;;;;;;;26.50;56.27;101198.16;5027559;28;20519;-44
2023/05/15 06:13:53;;;;;;;24.10;21.90;;;;;;;26.79;54.42;101197.00;5027966;28;20782;-39
2023/05/15 06:16:21;;;;;;;24.10;22.20;;;;;;;26.29;53.11;101203.84;5026208;28;20463;-43
2023/05/15 06:18:49;;;;;;;22.50;20.80;;;;;;;26.61;52.61;101200.47;5027701;28;20561;-42
2023/05/15 06:21:17;;;;;;;16.73;15.23;;;;;;;26.95;53.40;101194.88;5027525;28;20432;-39
2023/05/15 06:23:45;;;;;;;18.30;16.67;;;;;;;27.03;52.29;101193.44;5027661;28;20441;-40
2023/05/15 06:26:13;;;;;;;16.37;15.17;;;;;;;27.38;50.66;101196.47;5023772;28;20464;-40
2023/05/15 06:28:40;;;;;;;22.53;20.47;;;;;;;27.67;51.87;101187.25;5027342;28;20428;-43
2023/05/15 06:31:10;;;;;;;15.83;14.73;;;;;;;28.22;47.61;101196.44;5027214;28;20792;-40
2023/05/15 06:33:37;;;;;;;18.73;17.13;;;;;;;28.00;48.79;101188.88;5027053;28;20463;-42
2023/05/15 06:36:05;;;;;;;21.67;20.07;;;;;;;27.82;45.62;101179.59;5027064;28;20517;-45
2023/05/15 06:38:33;;;;;;;19.20;17.90;;;;;;;27.89;49.52;101181.94;5026920;28;20482;-41
2023/05/15 06:41:01;;;;;;;25.27;22.77;;;;;;;27.66;47.71;101177.41;5027183;28;20435;-40
2023/05/15 06:43:29;;;;;;;19.37;17.90;;;;;;;27.51;48.42;101178.47;5027442;28;20671;-41
2023/05/15 06:45:56;;;;;;;24.47;22.47;;;;;;;27.44;49.02;101176.13;5025506;28;20451;-42
2023/05/15 06:48:25;;;;;;;22.13;20.37;;;;;;;27.40;49.32;101168.75;5026643;28;20687;-42
2023/05/15 06:50:53;;;;;;;19.50;18.00;;;;;;;27.67;47.42;101170.81;5013562;28;20437;-41
2023/05/15 06:53:20;;;;;;;22.03;20.23;;;;;;;27.69;47.43;101169.38;5013134;28;20252;-41
2023/05/15 06:55:48;;;;;;;19.60;18.20;;;;;;;27.73;45.74;101167.69;5013398;28;20232;-41
2023/05/15 06:58:16;;;;;;;23.63;21.73;;;;;;;27.92;47.98;101171.19;5013530;28;20480;-40
2023/05/15 07:00:45;;;;;;;12.60;11.60;;;;;;;28.26;45.58;101168.09;5013786;28;20209;-40
2023/05/15 07:03:13;;;;;;;14.10;13.00;;;;;;;28.67;41.84;101151.66;5013847;28;20615;-39
2023/05/15 07:05:42;;;;;;;16.83;15.53;;;;;;;28.33;41.68;101162.22;5013888;28;20309;-45
2023/05/15 07:08:09;;;;;;;13.17;12.20;;;;;;;28.15;40.03;101163.13;5013362;28;20512;-40
2023/05/15 07:10:37;;;;;;;13.10;11.90;;;;;;;27.97;41.36;101157.38;5014237;28;20209;-42
2023/05/15 07:13:05;;;;;;;14.80;13.63;;;;;;;28.63;43.87;101152.53;5013831;28;20201;-40
2023/05/15 07:15:33;;;;;;;13.40;12.30;;;;;;;28.92;41.54;101158.50;5013101;28;20221;-40
2023/05/15 07:18:00;;;;;;;11.53;10.67;;;;;;;28.75;39.03;101153.69;5010205;28;20225;-40
2023/05/15 07:20:28;;;;;;;11.80;10.00;;;;;;;28.67;39.00;101154.41;5012328;28;20194;-41
2023/05/15 07:23:03;;;;;;;8.73;8.13;;;;;;;28.66;35.26;101154.69;5012616;28;20297;-39
2023/05/15 07:25:31;;;;;;;11.70;10.80;;;;;;;28.60;38.58;101147.66;5011354;28;20248;-41
2023/05/15 07:27:58;;;;;;;10.03;9.37;;;;;;;28.34;40.53;101153.69;5011084;28;20313;-40
2023/05/15 07:30:26;;;;;;;8.73;7.87;;;;;;;28.26;35.59;101148.91;5011003;28;20201;-45
2023/05/15 07:32:54;;;;;;;7.87;7.27;;;;;;;28.41;36.62;101150.53;5011239;28;20710;-39
2023/05/15 07:35:22;;;;;;;7.87;7.37;;;;;;;28.53;33.90;101140.66;5011937;28;20216;-40
2023/05/15 07:37:50;;;;;;;7.47;6.97;;;;;;;28.32;34.05;101141.38;5009903;28;20526;-40
2023/05/15 07:40:19;;;;;;;7.83;7.13;;;;;;;27.67;34.59;101141.47;5011091;28;20578;-42
2023/05/15 07:42:47;;;;;;;6.43;6.03;;;;;;;26.68;35.83;101138.03;5011216;28;20224;-44
2023/05/15 07:45:15;;;;;;;5.87;5.37;;;;;;;26.53;34.72;101132.75;5011343;28;20614;-42
2023/05/15 07:47:45;;;;;;;6.20;5.80;;;;;;;26.41;35.98;101129.63;4986059;28;20545;-42
2023/05/15 07:50:14;;;;;;;5.63;5.30;;;;;;;26.15;33.92;101134.59;5011616;28;20244;-41
2023/05/15 07:52:42;;;;;;;5.63;5.17;;;;;;;25.36;33.88;101140.44;5010851;28;20233;-45
2023/05/15 07:55:10;;;;;;;5.67;5.37;;;;;;;25.70;36.40;101135.84;5010279;28;20456;-45
2023/05/15 07:57:39;;;;;;;6.20;5.70;;;;;;;25.98;35.91;101136.94;5010923;28;20468;-45
2023/05/15 08:00:12;;;;;;;6.83;6.23;;;;;;;26.48;36.32;101134.75;5010174;28;20472;-42
2023/05/15 08:02:41;;;;;;;7.10;6.50;;;;;;;26.30;37.72;101141.78;5010336;28;20432;-41
2023/05/15 08:05:09;;;;;;;6.83;6.30;;;;;;;25.67;37.61;101141.88;5011415;28;20514;-41
2023/05/15 08:07:37;;;;;;;6.57;5.97;;;;;;;25.56;38.38;101132.16;5009270;28;20567;-39
2023/05/15 08:10:06;;;;;;;6.50;5.90;;;;;;;25.73;38.79;101138.00;5011414;28;20850;-40
2023/05/15 08:12:34;;;;;;;6.13;5.70;;;;;;;25.66;38.26;101128.50;5010299;28;20449;-39
2023/05/15 08:15:03;;;;;;;7.57;7.07;;;;;;;25.61;38.89;101126.63;5010817;28;20449;-41
2023/05/15 08:17:31;;;;;;;7.10;6.60;;;;;;;25.73;38.80;101131.72;4986481;28;20769;-39
2023/05/15 08:19:59;;;;;;;7.53;6.93;;;;;;;25.51;38.90;101126.72;5010086;28;20500;-42
2023/05/15 08:22:29;;;;;;;7.17;6.77;;;;;;;25.11;39.52;101127.81;5010308;28;20437;-41
2023/05/15 08:24:56;;;;;;;7.27;6.77;;;;;;;25.12;39.60;101123.16;5010104;28;20494;-40
2023/05/15 08:27:24;;;;;;;7.83;7.13;;;;;;;24.94;40.16;101121.13;5007273;28;20511;-43
2023/05/15 08:29:53;;;;;;;6.70;6.23;;;;;;;25.03;39.61;101117.50;5010072;28;20420;-40
2023/05/15 08:32:22;;;;;;;7.20;6.70;;;;;;;24.98;40.65;101117.53;5009653;28;20464;-38
2023/05/15 08:34:50;;;;;;;7.00;6.47;;;;;;;25.02;39.17;101117.78;5009814;28;20488;-41
2023/05/15 08:37:18;;;;;;;6.93;6.43;;;;;;;25.25;39.68;101101.50;5009144;28;20473;-40
2023/05/15 08:39:46;;;;;;;6.90;6.40;;;;;;;25.00;39.30;101106.34;5009869;28;20476;-39
2023/05/15 08:42:19;;;;;;;6.90;6.23;;;;;;;25.08;38.20;101109.28;5009404;28;20425;-40
2023/05/15 08:44:47;;;;;;;7.23;6.73;;;;;;;25.28;37.50;101100.13;5009566;28;20966;-41
2023/05/15 08:47:15;;;;;;;7.00;6.40;;;;;;;24.70;38.12;101101.88;5002527;28;20484;-39
2023/05/15 08:49:56;;;;;;;6.70;6.10;;;;;;;24.84;35.75;101096.63;5009384;28;20428;-42
2023/05/15 08:52:25;;;;;;;6.10;5.80;;;;;;;24.75;37.46;101097.19;5010594;28;20788;-40
2023/05/15 08:54:53;;;;;;;6.33;5.90;;;;;;;24.42;36.89;101102.53;5008998;28;20452;-42
2023/05/15 08:57:22;;;;;;;6.13;5.43;;;;;;;24.52;37.87;101097.06;5009968;28;20506;-38
2023/05/15 08:59:51;;;;;;;7.07;6.47;;;;;;;24.71;37.97;101095.31;5009403;28;20475;-41
2023/05/15 09:02:20;;;;;;;7.50;7.00;;;;;;;24.71;37.62;101084.38;5010000;28;20433;-39
2023/05/15 09:04:50;;;;;;;6.47;5.93;;;;;;;24.63;37.88;101087.72;5008067;28;20539;-40
2023/05/15 09:07:18;;;;;;;6.83;6.23;;;;;;;24.51;38.74;101088.06;5009858;28;20483;-41
2023/05/15 09:09:47;;;;;;;9.20;7.00;;;;;;;24.68;39.37;101091.22;5003388;28;20440;-40
2023/05/15 09:12:16;;;;;;;7.67;7.00;;;;;;;24.02;39.25;101077.03;4996311;28;20441;-41
2023/05/15 09:14:43;;;;;;;7.57;6.77;;;;;;;24.06;39.00;101080.84;4992963;28;20496;-39
2023/05/15 09:17:11;;;;;;;8.37;7.60;;;;;;;23.68;41.63;101085.00;5000977;28;20545;-39
2023/05/15 09:19:40;;;;;;;8.37;7.53;;;;;;;24.06;40.16;101085.50;5011166;28;20472;-42
2023/05/15 09:22:22;;;;;;;6.30;6.00;;;;;;;24.22;39.85;101084.38;5010641;28;20436;-39
2023/05/15 09:24:51;;;;;;;8.67;7.97;;;;;;;24.09;40.13;101080.31;5011732;28;20456;-39
2023/05/15 09:27:20;;;;;;;7.53;6.93;;;;;;;23.78;39.71;101078.75;5009860;28;20453;-42
2023/05/15 09:29:50;;;;;;;7.40;6.70;;;;;;;23.98;39.51;101072.44;5010201;28;20428;-44
2023/05/15 09:32:18;;;;;;;6.97;6.43;;;;;;;24.04;38.64;101074.84;5011168;28;20464;-39
2023/05/15 09:34:46;;;;;;;7.00;6.33;;;;;;;24.28;38.11;101077.81;5011509;28;20580;-41
2023/05/15 09:37:28;;;;;;;6.40;5.90;;;;;;;24.24;37.88;101076.72;5010891;28;20464;-42
2023/05/15 09:40:07;;;;;;;6.67;6.07;;;;;;;24.29;37.79;101081.31;5011183;28;21176;-42
2023/05/15 09:42:35;;;;;;;7.43;6.93;;;;;;;24.38;38.28;101079.66;5011426;28;20539;-42
2023/05/15 09:45:03;;;;;;;7.63;6.13;;;;;;;24.30;38.62;101074.78;5010938;28;20457;-46
2023/05/15 09:47:31;;;;;;;7.83;6.00;;;;;;;24.41;38.44;101071.75;5010863;28;20563;-46
2023/05/15 09:49:59;;;;;;;6.83;6.30;;;;;;;24.62;35.65;101076.00;5011227;28;20515;-43
2023/05/15 09:52:29;;;;;;;6.97;6.47;;;;;;;24.66;35.95;101073.53;5010887;28;20499;-46
2023/05/15 09:54:57;;;;;;;6.63;6.13;;;;;;;24.57;36.19;101073.31;5010922;28;21029;-40
2023/05/15 09:57:25;;;;;;;7.00;6.30;;;;;;;24.58;35.98;101069.47;5010855;28;20464;-41
2023/05/15 09:59:52;;;;;;;7.37;6.67;;;;;;;24.50;37.49;101067.34;5010737;28;20476;-45
2023/05/15 10:02:26;;;;;;;6.70;6.20;;;;;;;24.47;36.62;101058.91;5011271;28;20443;-43
2023/05/15 10:04:55;;;;;;;7.50;6.77;;;;;;;24.58;37.38;101061.28;5010469;28;20446;-43
2023/05/15 10:07:32;;;;;;;6.90;6.40;;;;;;;24.56;37.25;101052.56;5010760;28;20536;-40
2023/05/15 10:10:01;;;;;;;6.93;6.20;;;;;;;24.69;36.94;101051.13;5010742;28;20432;-43
2023/05/15 10:12:31;;;;;;;7.47;6.80;;;;;;;24.44;37.81;101056.72;5010791;28;20420;-40
2023/05/15 10:14:59;;;;;;;7.60;7.00;;;;;;;24.22;39.84;101057.13;5010982;28;20806;-42
2023/05/15 10:17:29;;;;;;;8.17;7.57;;;;;;;24.41;39.57;101051.84;5003117;28;20496;-40
2023/05/15 10:19:59;;;;;;;6.90;6.33;;;;;;;24.22;37.16;101049.75;5011242;28;20551;-40
2023/05/15 10:22:32;;;;;;;6.23;5.83;;;;;;;24.29;37.18;101054.91;5010758;28;20470;-43
2023/05/15 10:25:03;;;;;;;7.60;7.00;;;;;;;24.44;36.73;101046.66;5012734;28;20510;-40
2023/05/15 10:27:34;;;;;;;6.87;6.37;;;;;;;24.44;36.06;101049.38;5011634;28;20456;-40
2023/05/15 10:30:03;;;;;;;7.40;6.93;;;;;;;24.25;38.09;101045.66;4994813;28;20656;-40
2023/05/15 10:32:32;;;;;;;7.50;6.90;;;;;;;24.33;38.23;101038.81;4993909;28;20437;-40
2023/05/15 10:35:01;;;;;;;7.50;6.90;;;;;;;24.38;38.67;101038.78;4994592;28;20457;-41
2023/05/15 10:37:31;;;;;;;7.10;6.60;;;;;;;24.67;38.35;101043.22;4994584;28;20887;-41
2023/05/15 10:40:00;;;;;;;7.23;6.60;;;;;;;24.96;37.49;101037.88;4994827;28;20465;-43
2023/05/15 10:42:29;;;;;;;7.10;6.53;;;;;;;24.69;36.61;101032.88;4994148;28;20433;-45
2023/05/15 10:45:01;;;;;;;7.20;6.60;;;;;;;24.79;37.59;101035.50;4994107;28;20458;-43
2023/05/15 10:47:30;;;;;;;6.83;6.23;;;;;;;24.92;37.57;101025.91;4992903;28;20472;-44
2023/05/15 10:49:58;;;;;;;8.73;6.63;;;;;;;24.93;37.80;101032.19;4994885;28;20744;-41
2023/05/15 10:52:26;;;;;;;7.27;6.77;;;;;;;24.84;37.42;101033.88;4994652;28;20437;-43
2023/05/15 10:54:55;;;;;;;7.70;7.03;;;;;;;24.69;38.18;101026.59;4994368;28;20453;-42
2023/05/15 10:57:23;;;;;;;6.30;5.80;;;;;;;24.99;36.35;101023.69;4994172;28;20515;-43
2023/05/15 10:59:51;;;;;;;6.53;6.13;;;;;;;25.06;34.75;101023.34;4994570;28;20425;-43
2023/05/15 11:02:20;;;;;;;6.70;6.10;;;;;;;25.13;34.34;101013.72;4994091;28;20441;-40
2023/05/15 11:04:48;;;;;;;6.97;6.37;;;;;;;25.09;34.27;101015.38;4994393;28;20458;-43
2023/05/15 11:07:17;;;;;;;7.77;7.10;;;;;;;25.05;34.48;101008.06;4993970;28;21010;-39
2023/05/15 11:09:44;;;;;;;6.77;6.07;;;;;;;25.13;34.99;101019.19;4994172;28;20448;-40
2023/05/15 11:12:14;;;;;;;7.47;6.93;;;;;;;24.96;35.31;101013.34;4993832;28;20451;-40
2023/05/15 11:14:44;;;;;;;7.20;6.57;;;;;;;24.96;34.21;101009.78;4994355;28;20457;-46
2023/05/15 11:17:13;;;;;;;6.83;6.07;;;;;;;25.06;33.29;101007.78;4992367;28;21005;-41
2023/05/15 11:20:00;;;;;;;6.43;5.93;;;;;;;25.26;31.76;101004.88;4994267;28;20429;-41
2023/05/15 11:22:31;;;;;;;7.33;6.63;;;;;;;25.45;31.50;100993.25;4993915;28;20463;-41
2023/05/15 11:25:00;;;;;;;7.50;6.03;;;;;;;25.14;31.71;101004.44;4994006;28;20461;-42
2023/05/15 11:27:32;;;;;;;7.37;6.03;;;;;;;25.30;32.44;100997.72;5010263;28;20460;-44
2023/05/15 11:30:07;;;;;;;6.37;5.87;;;;;;;25.29;33.05;101000.75;4993912;28;20426;-41
2023/05/15 11:32:54;;;;;;;6.37;5.80;;;;;;;25.20;32.04;100995.13;4993598;28;20878;-44
2023/05/15 11:35:24;;;;;;;5.97;5.57;;;;;;;25.14;32.55;100998.16;4993640;28;20884;-42
2023/05/15 11:37:53;;;;;;;6.33;5.70;;;;;;;25.02;31.88;100995.81;4992903;28;20483;-43
2023/05/15 11:40:23;;;;;;;6.30;5.80;;;;;;;24.75;33.85;100992.75;4992742;28;20473;-39
2023/05/15 11:43:04;;;;;;;6.70;6.20;;;;;;;24.54;32.70;100997.53;4993511;28;20445;-41
2023/05/15 11:45:33;;;;;;;6.30;5.90;;;;;;;24.78;34.63;100990.25;4993329;28;20540;-41
2023/05/15 11:48:03;;;;;;;6.53;5.93;;;;;;;24.73;35.71;100986.72;4990175;28;20469;-39
2023/05/15 11:50:32;;;;;;;5.13;4.83;;;;;;;24.38;33.80;100985.06;4993283;28;20457;-40
2023/05/15 11:53:03;;;;;;;5.87;5.57;;;;;;;24.61;33.48;100981.63;4993030;28;20529;-43
2023/05/15 11:55:32;;;;;;;6.77;6.27;;;;;;;24.69;34.53;100980.22;4992974;28;20489;-39
2023/05/15 11:58:00;;;;;;;6.60;6.20;;;;;;;24.84;35.17;100982.06;4991788;28;20511;-39
2023/05/15 12:00:29;;;;;;;7.23;6.63;;;;;;;25.03;35.31;100972.09;4992959;28;20461;-40
2023/05/15 12:02:56;;;;;;;6.63;6.23;;;;;;;25.18;38.21;100972.72;4993051;28;20438;-41
2023/05/15 12:05:24;;;;;;;7.03;6.57;;;;;;;25.42;34.07;100964.56;4993036;28;20454;-43
2023/05/15 12:07:52;;;;;;;5.83;5.40;;;;;;;25.40;33.83;100966.78;4992079;28;20548;-43